createdAt,value
2018-04-19T00:00:45.834Z,1028.05
2018-04-19T00:01:45.834Z,1028.05
2018-04-19T00:02:45.832Z,1028.07
2018-04-19T00:03:45.830Z,1028.10
2018-04-19T00:04:45.830Z,1028.06
2018-04-19T00:05:45.827Z,1028.04
2018-04-19T00:06:45.827Z,1028.05
2018-04-19T00:07:45.831Z,1028.05
2018-04-19T00:08:45.822Z,1028.06
2018-04-19T00:09:45.823Z,1028.03
2018-04-19T00:10:45.821Z,1028.02
2018-04-19T00:11:45.829Z,1028.00
2018-04-19T00:12:45.823Z,1028.02
2018-04-19T00:13:45.816Z,1028.04
2018-04-19T00:14:45.814Z,1028.06
2018-04-19T00:15:45.819Z,1028.04
2018-04-19T00:16:45.811Z,1028.03
2018-04-19T00:17:45.808Z,1028.05
2018-04-19T00:18:45.808Z,1028.02
2018-04-19T00:19:45.806Z,1028.04
2018-04-19T00:20:45.822Z,1028.03
2018-04-19T00:21:45.805Z,1028.06
2018-04-19T00:22:45.804Z,1028.06
2018-04-19T00:23:45.805Z,1028.04
2018-04-19T00:24:45.799Z,1028.09
2018-04-19T00:25:45.796Z,1028.06
2018-04-19T00:26:45.796Z,1028.11
2018-04-19T00:27:45.799Z,1028.10
2018-04-19T00:28:45.790Z,1028.10
2018-04-19T00:29:45.788Z,1028.09
2018-04-19T00:30:45.788Z,1028.08
2018-04-19T00:31:45.788Z,1028.07
2018-04-19T00:32:45.786Z,1028.08
2018-04-19T00:33:45.785Z,1028.08
2018-04-19T00:34:45.782Z,1028.06
2018-04-19T00:35:45.783Z,1028.08
2018-04-19T00:36:45.779Z,1028.09
2018-04-19T00:37:45.779Z,1028.08
2018-04-19T00:38:45.776Z,1028.11
2018-04-19T00:39:45.776Z,1028.13
2018-04-19T00:40:45.774Z,1028.11
2018-04-19T00:41:45.771Z,1028.11
2018-04-19T00:42:45.768Z,1028.13
2018-04-19T00:43:45.771Z,1028.12
2018-04-19T00:44:45.767Z,1028.14
2018-04-19T00:45:45.766Z,1028.14
2018-04-19T00:46:45.763Z,1028.14
2018-04-19T00:47:45.762Z,1028.13
2018-04-19T00:48:45.760Z,1028.15
2018-04-19T00:49:45.764Z,1028.11
2018-04-19T00:50:45.758Z,1028.08
2018-04-19T00:51:45.756Z,1028.11
2018-04-19T00:52:45.754Z,1028.13
2018-04-19T00:53:45.755Z,1028.13
2018-04-19T00:54:45.750Z,1028.14
2018-04-19T00:55:45.753Z,1028.13
2018-04-19T00:56:45.749Z,1028.12
2018-04-19T00:57:45.748Z,1028.12
2018-04-19T00:58:45.746Z,1028.08
2018-04-19T00:59:45.742Z,1028.06
2018-04-19T01:00:45.745Z,1028.00
2018-04-19T01:01:45.742Z,1028.06
2018-04-19T01:02:45.737Z,1028.04
2018-04-19T01:03:45.736Z,1028.00
2018-04-19T01:04:45.741Z,1028.04
2018-04-19T01:05:45.731Z,1028.01
2018-04-19T01:06:45.727Z,1028.02
2018-04-19T01:07:45.729Z,1028.02
2018-04-19T01:08:45.726Z,1028.04
2018-04-19T01:09:45.730Z,1028.02
2018-04-19T01:10:45.737Z,1027.99
2018-04-19T01:11:45.721Z,1027.98
2018-04-19T01:12:45.719Z,1028.00
2018-04-19T01:13:45.720Z,1027.96
2018-04-19T01:14:45.717Z,1027.91
2018-04-19T01:15:45.713Z,1027.96
2018-04-19T01:16:45.712Z,1027.93
2018-04-19T01:17:45.710Z,1027.94
2018-04-19T01:18:45.705Z,1027.89
2018-04-19T01:19:45.706Z,1027.87
2018-04-19T01:20:45.703Z,1027.83
2018-04-19T01:21:45.700Z,1027.87
2018-04-19T01:22:45.705Z,1027.85
2018-04-19T01:23:45.698Z,1027.84
2018-04-19T01:24:45.695Z,1027.85
2018-04-19T01:25:45.701Z,1027.79
2018-04-19T01:26:45.692Z,1027.80
2018-04-19T01:27:45.691Z,1027.77
2018-04-19T01:28:45.692Z,1027.80
2018-04-19T01:29:45.689Z,1027.82
2018-04-19T01:30:45.685Z,1027.77
2018-04-19T01:31:45.685Z,1027.80
2018-04-19T01:32:45.674Z,1027.80
2018-04-19T01:33:45.675Z,1027.78
2018-04-19T01:34:45.678Z,1027.78
2018-04-19T01:35:45.677Z,1027.73
2018-04-19T01:36:45.669Z,1027.76
2018-04-19T01:37:45.676Z,1027.73
2018-04-19T01:38:45.670Z,1027.72
2018-04-19T01:39:45.666Z,1027.73
2018-04-19T01:40:45.665Z,1027.70
2018-04-19T01:41:45.692Z,1027.70
2018-04-19T01:42:45.658Z,1027.74
2018-04-19T01:43:45.658Z,1027.75
2018-04-19T01:44:45.655Z,1027.74
2018-04-19T01:45:45.652Z,1027.70
2018-04-19T01:46:45.650Z,1027.71
2018-04-19T01:47:45.650Z,1027.69
2018-04-19T01:48:45.649Z,1027.67
2018-04-19T01:49:45.648Z,1027.65
2018-04-19T01:50:45.644Z,1027.65
2018-04-19T01:51:45.647Z,1027.66
2018-04-19T01:52:45.638Z,1027.64
2018-04-19T01:53:45.633Z,1027.65
2018-04-19T01:54:45.635Z,1027.68
2018-04-19T01:55:45.633Z,1027.66
2018-04-19T01:56:45.627Z,1027.64
2018-04-19T01:57:45.631Z,1027.60
2018-04-19T01:58:45.626Z,1027.64
2018-04-19T01:59:45.630Z,1027.62
2018-04-19T02:00:45.627Z,1027.63
2018-04-19T02:01:45.619Z,1027.59
2018-04-19T02:02:45.617Z,1027.57
2018-04-19T02:03:45.621Z,1027.54
2018-04-19T02:04:45.611Z,1027.56
2018-04-19T02:05:45.611Z,1027.53
2018-04-19T02:06:45.615Z,1027.54
2018-04-19T02:07:45.606Z,1027.54
2018-04-19T02:08:45.604Z,1027.58
2018-04-19T02:09:45.601Z,1027.67
2018-04-19T02:10:45.602Z,1027.64
2018-04-19T02:11:45.600Z,1027.59
2018-04-19T02:12:45.594Z,1027.55
2018-04-19T02:13:45.592Z,1027.53
2018-04-19T02:14:45.590Z,1027.54
2018-04-19T02:15:45.588Z,1027.54
2018-04-19T02:16:45.582Z,1027.54
2018-04-19T02:17:45.583Z,1027.51
2018-04-19T02:18:45.580Z,1027.51
2018-04-19T02:19:45.577Z,1027.53
2018-04-19T02:20:45.577Z,1027.55
2018-04-19T02:21:45.574Z,1027.50
2018-04-19T02:22:45.568Z,1027.42
2018-04-19T02:23:45.574Z,1027.42
2018-04-19T02:24:45.565Z,1027.41
2018-04-19T02:25:45.563Z,1027.42
2018-04-19T02:26:45.562Z,1027.43
2018-04-19T02:27:45.554Z,1027.44
2018-04-19T02:28:45.554Z,1027.39
2018-04-19T02:29:45.552Z,1027.42
2018-04-19T02:30:45.549Z,1027.45
2018-04-19T02:31:45.548Z,1027.44
2018-04-19T02:32:45.547Z,1027.39
2018-04-19T02:33:45.542Z,1027.41
2018-04-19T02:34:45.546Z,1027.41
2018-04-19T02:35:45.597Z,1027.41
2018-04-19T02:36:45.535Z,1027.40
2018-04-19T02:37:45.535Z,1027.38
2018-04-19T02:38:45.527Z,1027.38
2018-04-19T02:39:45.528Z,1027.40
2018-04-19T02:40:45.525Z,1027.44
2018-04-19T02:41:45.523Z,1027.44
2018-04-19T02:42:45.521Z,1027.47
2018-04-19T02:43:45.521Z,1027.40
2018-04-19T02:44:45.514Z,1027.36
2018-04-19T02:45:45.516Z,1027.39
2018-04-19T02:46:45.510Z,1027.37
2018-04-19T02:47:45.507Z,1027.44
2018-04-19T02:48:45.519Z,1027.44
2018-04-19T02:49:45.512Z,1027.45
2018-04-19T02:50:45.500Z,1027.46
2018-04-19T02:51:45.498Z,1027.43
2018-04-19T02:52:45.497Z,1027.43
2018-04-19T02:53:45.492Z,1027.42
2018-04-19T02:54:45.488Z,1027.41
2018-04-19T02:55:45.484Z,1027.39
2018-04-19T02:56:45.493Z,1027.43
2018-04-19T02:57:45.482Z,1027.42
2018-04-19T02:58:45.485Z,1027.37
2018-04-19T02:59:45.476Z,1027.40
2018-04-19T03:00:45.469Z,1027.34
2018-04-19T03:01:45.471Z,1027.35
2018-04-19T03:02:45.465Z,1027.34
2018-04-19T03:03:45.468Z,1027.34
2018-04-19T03:04:45.463Z,1027.34
2018-04-19T03:05:45.461Z,1027.35
2018-04-19T03:06:45.456Z,1027.36
2018-04-19T03:07:45.460Z,1027.37
2018-04-19T03:08:45.452Z,1027.34
2018-04-19T03:09:45.450Z,1027.38
2018-04-19T03:10:45.447Z,1027.38
2018-04-19T03:11:45.444Z,1027.40
2018-04-19T03:12:45.442Z,1027.39
2018-04-19T03:13:45.440Z,1027.41
2018-04-19T03:14:45.434Z,1027.38
2018-04-19T03:15:45.435Z,1027.39
2018-04-19T03:16:45.430Z,1027.37
2018-04-19T03:17:45.427Z,1027.36
2018-04-19T03:18:45.430Z,1027.39
2018-04-19T03:19:45.421Z,1027.42
2018-04-19T03:20:45.421Z,1027.45
2018-04-19T03:21:45.415Z,1027.42
2018-04-19T03:22:45.412Z,1027.44
2018-04-19T03:23:45.411Z,1027.43
2018-04-19T03:24:45.406Z,1027.41
2018-04-19T03:25:45.404Z,1027.38
2018-04-19T03:26:45.404Z,1027.36
2018-04-19T03:27:45.399Z,1027.40
2018-04-19T03:28:45.401Z,1027.37
2018-04-19T03:29:45.396Z,1027.38
2018-04-19T03:30:45.391Z,1027.38
2018-04-19T03:31:45.387Z,1027.38
2018-04-19T03:32:45.389Z,1027.35
2018-04-19T03:33:45.379Z,1027.39
2018-04-19T03:34:45.381Z,1027.38
2018-04-19T03:35:45.376Z,1027.33
2018-04-19T03:36:45.372Z,1027.32
2018-04-19T03:37:45.370Z,1027.34
2018-04-19T03:38:45.368Z,1027.33
2018-04-19T03:39:45.368Z,1027.36
2018-04-19T03:40:45.391Z,1027.37
2018-04-19T03:41:45.358Z,1027.40
2018-04-19T03:42:45.362Z,1027.40
2018-04-19T03:43:45.358Z,1027.36
2018-04-19T03:44:45.350Z,1027.36
2018-04-19T03:45:45.349Z,1027.36
2018-04-19T03:46:45.345Z,1027.37
2018-04-19T03:47:45.344Z,1027.39
2018-04-19T03:48:45.339Z,1027.35
2018-04-19T03:49:45.339Z,1027.36
2018-04-19T03:50:45.337Z,1027.42
2018-04-19T03:51:45.331Z,1027.39
2018-04-19T03:52:45.331Z,1027.38
2018-04-19T03:53:45.330Z,1027.38
2018-04-19T03:54:45.319Z,1027.43
2018-04-19T03:55:45.318Z,1027.45
2018-04-19T03:56:45.319Z,1027.48
2018-04-19T03:57:45.314Z,1027.45
2018-04-19T03:58:45.314Z,1027.46
2018-04-19T03:59:45.309Z,1027.46
2018-04-19T04:00:45.305Z,1027.49
2018-04-19T04:01:45.312Z,1027.52
2018-04-19T04:02:45.300Z,1027.52
2018-04-19T04:03:45.298Z,1027.50
2018-04-19T04:04:45.293Z,1027.51
2018-04-19T04:05:45.288Z,1027.48
2018-04-19T04:06:45.289Z,1027.49
2018-04-19T04:07:45.290Z,1027.51
2018-04-19T04:08:45.283Z,1027.52
2018-04-19T04:09:45.282Z,1027.47
2018-04-19T04:10:45.279Z,1027.47
2018-04-19T04:11:45.276Z,1027.49
2018-04-19T04:12:45.269Z,1027.47
2018-04-19T04:13:45.269Z,1027.51
2018-04-19T04:14:45.265Z,1027.51
2018-04-19T04:15:45.262Z,1027.50
2018-04-19T04:16:45.259Z,1027.54
2018-04-19T04:17:45.257Z,1027.56
2018-04-19T04:18:45.254Z,1027.52
2018-04-19T04:19:45.251Z,1027.55
2018-04-19T04:20:45.248Z,1027.53
2018-04-19T04:21:45.246Z,1027.54
2018-04-19T04:22:45.249Z,1027.57
2018-04-19T04:23:45.239Z,1027.59
2018-04-19T04:24:45.236Z,1027.58
2018-04-19T04:25:45.235Z,1027.59
2018-04-19T04:26:45.229Z,1027.59
2018-04-19T04:27:45.226Z,1027.61
2018-04-19T04:28:45.224Z,1027.59
2018-04-19T04:29:45.221Z,1027.58
2018-04-19T04:30:45.216Z,1027.58
2018-04-19T04:31:45.216Z,1027.60
2018-04-19T04:32:45.210Z,1027.62
2018-04-19T04:33:45.217Z,1027.62
2018-04-19T04:34:45.210Z,1027.63
2018-04-19T04:35:45.205Z,1027.63
2018-04-19T04:36:45.199Z,1027.65
2018-04-19T04:37:45.196Z,1027.65
2018-04-19T04:38:45.196Z,1027.66
2018-04-19T04:39:45.193Z,1027.71
2018-04-19T04:40:45.188Z,1027.67
2018-04-19T04:41:45.187Z,1027.67
2018-04-19T04:42:45.184Z,1027.70
2018-04-19T04:43:45.181Z,1027.68
2018-04-19T04:44:45.179Z,1027.69
2018-04-19T04:45:45.177Z,1027.67
2018-04-19T04:46:45.172Z,1027.71
2018-04-19T04:47:45.174Z,1027.74
2018-04-19T04:48:45.164Z,1027.74
2018-04-19T04:49:45.164Z,1027.76
2018-04-19T04:50:45.161Z,1027.74
2018-04-19T04:51:45.158Z,1027.80
2018-04-19T04:52:45.155Z,1027.80
2018-04-19T04:53:45.151Z,1027.78
2018-04-19T04:54:45.153Z,1027.82
2018-04-19T04:55:45.146Z,1027.82
2018-04-19T04:56:45.143Z,1027.84
2018-04-19T04:57:45.141Z,1027.86
2018-04-19T04:58:45.138Z,1027.85
2018-04-19T04:59:45.135Z,1027.85
2018-04-19T05:00:45.132Z,1027.89
2018-04-19T05:01:45.130Z,1027.88
2018-04-19T05:02:45.130Z,1027.87
2018-04-19T05:03:45.126Z,1027.89
2018-04-19T05:04:45.122Z,1027.87
2018-04-19T05:05:45.148Z,1027.87
2018-04-19T05:06:45.118Z,1027.89
2018-04-19T05:07:45.116Z,1027.91
2018-04-19T05:08:45.114Z,1027.91
2018-04-19T05:09:45.106Z,1027.92
2018-04-19T05:10:45.105Z,1027.96
2018-04-19T05:11:45.109Z,1027.96
2018-04-19T05:12:45.103Z,1027.97
2018-04-19T05:13:45.099Z,1027.97
2018-04-19T05:14:45.108Z,1027.97
2018-04-19T05:15:45.101Z,1027.94
2018-04-19T05:16:45.098Z,1027.97
2018-04-19T05:17:45.135Z,1027.96
2018-04-19T05:18:45.093Z,1027.95
2018-04-19T05:19:45.092Z,1027.96
2018-04-19T05:20:45.091Z,1028.00
2018-04-19T05:21:45.093Z,1027.95
2018-04-19T05:22:45.086Z,1027.96
2018-04-19T05:23:45.089Z,1027.96
2018-04-19T05:24:45.089Z,1027.98
2018-04-19T05:25:45.086Z,1028.00
2018-04-19T05:26:45.086Z,1028.02
2018-04-19T05:27:45.083Z,1028.02
2018-04-19T05:28:45.084Z,1028.02
2018-04-19T05:29:45.081Z,1028.00
2018-04-19T05:30:45.083Z,1028.01
2018-04-19T05:31:45.081Z,1028.01
2018-04-19T05:32:45.079Z,1028.06
2018-04-19T05:33:45.083Z,1028.06
2018-04-19T05:34:45.077Z,1028.07
2018-04-19T05:35:45.072Z,1028.03
2018-04-19T05:36:45.078Z,1028.06
2018-04-19T05:37:45.080Z,1028.07
2018-04-19T05:38:45.077Z,1028.03
2018-04-19T05:39:45.077Z,1028.09
2018-04-19T05:40:45.085Z,1028.10
2018-04-19T05:41:45.083Z,1028.09
2018-04-19T05:42:45.078Z,1028.08
2018-04-19T05:43:45.091Z,1028.08
2018-04-19T05:44:45.079Z,1028.03
2018-04-19T05:45:45.079Z,1028.02
2018-04-19T05:46:45.081Z,1028.06
2018-04-19T05:47:45.078Z,1028.01
2018-04-19T05:48:45.082Z,1028.03
2018-04-19T05:49:45.083Z,1028.03
2018-04-19T05:50:45.084Z,1028.04
2018-04-19T05:51:45.085Z,1028.02
2018-04-19T05:52:45.083Z,1028.03
2018-04-19T05:53:45.087Z,1027.99
2018-04-19T05:54:45.090Z,1027.99
2018-04-19T05:55:45.103Z,1028.03
2018-04-19T05:56:45.089Z,1028.02
2018-04-19T05:57:45.091Z,1028.04
2018-04-19T05:58:45.110Z,1028.04
2018-04-19T05:59:45.101Z,1028.06
2018-04-19T06:00:45.101Z,1028.08
2018-04-19T06:01:45.112Z,1028.05
2018-04-19T06:02:45.101Z,1028.10
2018-04-19T06:03:45.106Z,1028.09
2018-04-19T06:04:45.113Z,1028.07
2018-04-19T06:05:45.123Z,1028.04
2018-04-19T06:06:45.115Z,1028.03
2018-04-19T06:07:45.121Z,1028.02
2018-04-19T06:08:45.122Z,1028.04
2018-04-19T06:09:45.116Z,1028.03
2018-04-19T06:10:45.133Z,1028.05
2018-04-19T06:11:45.130Z,1028.06
2018-04-19T06:12:45.129Z,1028.07
2018-04-19T06:13:45.128Z,1028.11
2018-04-19T06:14:45.135Z,1028.11
2018-04-19T06:15:45.142Z,1028.11
2018-04-19T06:16:45.134Z,1028.12
2018-04-19T06:17:45.138Z,1028.10
2018-04-19T06:18:45.141Z,1028.10
2018-04-19T06:19:45.146Z,1028.09
2018-04-19T06:20:45.151Z,1028.14
2018-04-19T06:21:45.152Z,1028.07
2018-04-19T06:22:45.154Z,1028.11
2018-04-19T06:23:45.162Z,1028.12
2018-04-19T06:24:45.160Z,1028.13
2018-04-19T06:25:45.166Z,1028.09
2018-04-19T06:26:45.173Z,1028.13
2018-04-19T06:27:45.173Z,1028.09
2018-04-19T06:28:45.177Z,1028.09
2018-04-19T06:29:45.181Z,1028.15
2018-04-19T06:30:45.184Z,1028.14
2018-04-19T06:31:45.188Z,1028.12
2018-04-19T06:32:45.196Z,1028.12
2018-04-19T06:33:45.200Z,1028.14
2018-04-19T06:34:45.204Z,1028.13
2018-04-19T06:35:45.209Z,1028.11
2018-04-19T06:36:45.210Z,1028.07
2018-04-19T06:37:45.215Z,1028.07
2018-04-19T06:38:45.218Z,1028.05
2018-04-19T06:39:45.224Z,1028.07
2018-04-19T06:40:45.230Z,1028.08
2018-04-19T06:41:45.234Z,1028.05
2018-04-19T06:42:45.238Z,1028.08
2018-04-19T06:43:45.244Z,1028.09
2018-04-19T06:44:45.249Z,1028.12
2018-04-19T06:45:45.255Z,1028.14
2018-04-19T06:46:45.262Z,1028.20
2018-04-19T06:47:45.268Z,1028.16
2018-04-19T06:48:45.269Z,1028.19
2018-04-19T06:49:45.274Z,1028.19
2018-04-19T06:50:45.283Z,1028.18
2018-04-19T06:51:45.287Z,1028.14
2018-04-19T06:52:45.290Z,1028.15
2018-04-19T06:53:45.299Z,1028.13
2018-04-19T06:54:45.301Z,1028.17
2018-04-19T06:55:45.369Z,1028.17
2018-04-19T06:56:45.504Z,1028.17
2018-04-19T06:57:45.316Z,1028.18
2018-04-19T06:58:45.322Z,1028.22
2018-04-19T06:59:45.326Z,1028.20
2018-04-19T07:00:45.334Z,1028.19
2018-04-19T07:01:45.340Z,1028.19
2018-04-19T07:02:45.346Z,1028.19
2018-04-19T07:03:45.350Z,1028.17
2018-04-19T07:04:45.357Z,1028.14
2018-04-19T07:05:45.365Z,1028.14
2018-04-19T07:06:45.371Z,1028.15
2018-04-19T07:07:45.377Z,1028.15
2018-04-19T07:08:45.380Z,1028.16
2018-04-19T07:09:45.389Z,1028.17
2018-04-19T07:10:45.394Z,1028.16
2018-04-19T07:11:45.404Z,1028.18
2018-04-19T07:12:45.403Z,1028.14
2018-04-19T07:13:45.414Z,1028.18
2018-04-19T07:14:45.441Z,1028.25
2018-04-19T07:15:45.427Z,1028.18
2018-04-19T07:16:45.433Z,1028.14
2018-04-19T07:17:45.441Z,1028.11
2018-04-19T07:18:45.450Z,1028.12
2018-04-19T07:19:45.456Z,1028.10
2018-04-19T07:20:45.461Z,1028.10
2018-04-19T07:21:45.466Z,1028.09
2018-04-19T07:22:45.476Z,1028.11
2018-04-19T07:23:45.478Z,1028.12
2018-04-19T07:24:45.485Z,1028.13
2018-04-19T07:25:45.498Z,1028.15
2018-04-19T07:26:45.499Z,1028.15
2018-04-19T07:27:45.505Z,1028.13
2018-04-19T07:28:45.511Z,1028.16
2018-04-19T07:29:45.513Z,1028.17
2018-04-19T07:30:45.525Z,1028.08
2018-04-19T07:31:45.531Z,1028.11
2018-04-19T07:32:45.539Z,1028.09
2018-04-19T07:33:45.544Z,1028.07
2018-04-19T07:34:45.552Z,1028.10
2018-04-19T07:35:45.559Z,1028.04
2018-04-19T07:36:45.565Z,1028.09
2018-04-19T07:37:45.574Z,1028.08
2018-04-19T07:38:45.586Z,1028.06
2018-04-19T07:39:45.590Z,1028.10
2018-04-19T07:40:45.596Z,1028.10
2018-04-19T07:41:45.604Z,1028.10
2018-04-19T07:42:45.609Z,1028.11
2018-04-19T07:43:45.617Z,1028.13
2018-04-19T07:44:45.622Z,1028.13
2018-04-19T07:45:45.629Z,1028.12
2018-04-19T07:46:45.636Z,1028.13
2018-04-19T07:47:45.647Z,1028.14
2018-04-19T07:48:45.652Z,1028.12
2018-04-19T07:49:45.662Z,1028.14
2018-04-19T07:50:45.668Z,1028.18
2018-04-19T07:51:45.676Z,1028.14
2018-04-19T07:52:45.682Z,1028.12
2018-04-19T07:53:45.689Z,1028.16
2018-04-19T07:54:45.699Z,1028.12
2018-04-19T07:55:45.705Z,1028.11
2018-04-19T07:56:45.715Z,1028.12
2018-04-19T07:57:46.191Z,1028.16
2018-04-19T07:58:45.729Z,1028.20
2018-04-19T07:59:45.736Z,1028.19
2018-04-19T08:00:45.742Z,1028.17
2018-04-19T08:01:45.744Z,1028.20
2018-04-19T08:02:45.754Z,1028.22
2018-04-19T08:03:45.757Z,1028.16
2018-04-19T08:04:45.766Z,1028.13
2018-04-19T08:05:45.772Z,1028.17
2018-04-19T08:06:45.771Z,1028.19
2018-04-19T08:07:45.782Z,1028.19
2018-04-19T08:08:45.795Z,1028.21
2018-04-19T08:09:45.799Z,1028.20
2018-04-19T08:10:45.800Z,1028.22
2018-04-19T08:11:45.805Z,1028.17
2018-04-19T08:12:45.808Z,1028.19
2018-04-19T08:13:45.813Z,1028.18
2018-04-19T08:14:45.820Z,1028.18
2018-04-19T08:15:45.824Z,1028.17
2018-04-19T08:16:45.827Z,1028.20
2018-04-19T08:17:45.832Z,1028.19
2018-04-19T08:18:45.835Z,1028.20
2018-04-19T08:19:45.840Z,1028.23
2018-04-19T08:20:45.845Z,1028.18
2018-04-19T08:21:45.855Z,1028.18
2018-04-19T08:22:45.858Z,1028.21
2018-04-19T08:23:45.861Z,1028.18
2018-04-19T08:24:45.866Z,1028.25
2018-04-19T08:25:45.869Z,1028.30
2018-04-19T08:26:45.877Z,1028.25
2018-04-19T08:27:45.878Z,1028.18
2018-04-19T08:28:45.884Z,1028.21
2018-04-19T08:29:45.887Z,1028.22
2018-04-19T08:30:45.888Z,1028.21
2018-04-19T08:31:45.893Z,1028.20
2018-04-19T08:32:45.900Z,1028.19
2018-04-19T08:33:45.906Z,1028.17
2018-04-19T08:34:45.916Z,1028.17
2018-04-19T08:35:45.922Z,1028.21
2018-04-19T08:36:45.921Z,1028.18
2018-04-19T08:37:45.934Z,1028.18
2018-04-19T08:38:45.926Z,1028.17
2018-04-19T08:39:45.931Z,1028.16
2018-04-19T08:40:45.935Z,1028.19
2018-04-19T08:41:45.941Z,1028.16
2018-04-19T08:42:45.944Z,1028.16
2018-04-19T08:43:45.947Z,1028.15
2018-04-19T08:44:45.950Z,1028.12
2018-04-19T08:45:45.957Z,1028.15
2018-04-19T08:46:45.962Z,1028.12
2018-04-19T08:47:45.964Z,1028.12
2018-04-19T08:48:45.968Z,1028.10
2018-04-19T08:49:45.976Z,1028.12
2018-04-19T08:50:45.988Z,1028.11
2018-04-19T08:51:45.979Z,1028.12
2018-04-19T08:52:45.982Z,1028.15
2018-04-19T08:53:45.987Z,1028.12
2018-04-19T08:54:45.993Z,1028.13
2018-04-19T08:55:45.994Z,1028.17
2018-04-19T08:56:46.000Z,1028.12
2018-04-19T08:57:46.004Z,1028.14
2018-04-19T08:58:46.008Z,1028.15
2018-04-19T08:59:46.017Z,1028.11
2018-04-19T09:00:46.017Z,1028.12
2018-04-19T09:01:46.020Z,1028.15
2018-04-19T09:02:46.078Z,1028.14
2018-04-19T09:03:46.029Z,1028.15
2018-04-19T09:04:46.030Z,1028.12
2018-04-19T09:05:46.036Z,1028.12
2018-04-19T09:06:46.041Z,1028.13
2018-04-19T09:07:46.044Z,1028.13
2018-04-19T09:08:46.047Z,1028.12
2018-04-19T09:09:46.049Z,1028.11
2018-04-19T09:10:46.054Z,1028.10
2018-04-19T09:11:46.061Z,1028.13
2018-04-19T09:12:46.067Z,1028.15
2018-04-19T09:13:46.076Z,1028.14
2018-04-19T09:14:46.080Z,1028.15
2018-04-19T09:15:46.077Z,1028.16
2018-04-19T09:16:46.082Z,1028.17
2018-04-19T09:17:46.085Z,1028.19
2018-04-19T09:18:46.089Z,1028.16
2018-04-19T09:19:46.091Z,1028.19
2018-04-19T09:20:46.096Z,1028.15
2018-04-19T09:21:46.098Z,1028.19
2018-04-19T09:22:46.109Z,1028.12
2018-04-19T09:23:46.110Z,1028.16
2018-04-19T09:24:46.113Z,1028.16
2018-04-19T09:25:46.117Z,1028.14
2018-04-19T09:26:46.125Z,1028.16
2018-04-19T09:27:46.130Z,1028.14
2018-04-19T09:28:46.126Z,1028.16
2018-04-19T09:29:46.130Z,1028.16
2018-04-19T09:30:46.136Z,1028.13
2018-04-19T09:31:46.141Z,1028.17
2018-04-19T09:32:46.149Z,1028.10
2018-04-19T09:33:46.147Z,1028.10
2018-04-19T09:34:46.152Z,1028.09
2018-04-19T09:35:46.159Z,1028.14
2018-04-19T09:36:46.159Z,1028.15
2018-04-19T09:37:46.163Z,1028.12
2018-04-19T09:38:46.165Z,1028.11
2018-04-19T09:39:46.169Z,1028.15
2018-04-19T09:40:46.175Z,1028.13
2018-04-19T09:41:46.177Z,1028.13
2018-04-19T09:42:46.181Z,1028.14
2018-04-19T09:43:46.187Z,1028.11
2018-04-19T09:44:46.190Z,1028.13
2018-04-19T09:45:46.194Z,1028.18
2018-04-19T09:46:46.200Z,1028.16
2018-04-19T09:47:46.204Z,1028.14
2018-04-19T09:48:46.207Z,1028.15
2018-04-19T09:49:46.211Z,1028.14
2018-04-19T09:50:46.219Z,1028.12
2018-04-19T09:51:46.227Z,1028.16
2018-04-19T09:52:46.221Z,1028.13
2018-04-19T09:53:46.236Z,1028.19
2018-04-19T09:54:46.231Z,1028.16
2018-04-19T09:55:46.233Z,1028.15
2018-04-19T09:56:46.236Z,1028.16
2018-04-19T09:57:46.237Z,1028.13
2018-04-19T09:58:46.248Z,1028.10
2018-04-19T09:59:46.257Z,1028.15
2018-04-19T10:00:46.251Z,1028.07
2018-04-19T10:01:46.260Z,1028.08
2018-04-19T10:02:46.260Z,1028.09
2018-04-19T10:03:46.263Z,1028.12
2018-04-19T10:04:46.263Z,1028.10
2018-04-19T10:05:46.270Z,1028.09
2018-04-19T10:06:46.273Z,1028.06
2018-04-19T10:07:46.279Z,1028.04
2018-04-19T10:08:46.285Z,1028.06
2018-04-19T10:09:46.285Z,1028.06
2018-04-19T10:10:46.291Z,1028.07
2018-04-19T10:11:46.289Z,1028.04
2018-04-19T10:12:46.312Z,1028.07
2018-04-19T10:13:46.311Z,1028.06
2018-04-19T10:14:46.341Z,1028.07
2018-04-19T10:15:46.319Z,1028.09
2018-04-19T10:16:46.328Z,1028.08
2018-04-19T10:17:46.320Z,1028.05
2018-04-19T10:18:46.323Z,1028.10
2018-04-19T10:19:46.334Z,1028.06
2018-04-19T10:20:46.334Z,1028.04
2018-04-19T10:21:46.331Z,1028.03
2018-04-19T10:22:46.338Z,1028.00
2018-04-19T10:23:46.344Z,1028.04
2018-04-19T10:24:46.346Z,1028.06
2018-04-19T10:25:46.352Z,1028.05
2018-04-19T10:26:46.358Z,1028.02
2018-04-19T10:27:46.369Z,1028.03
2018-04-19T10:28:47.225Z,1028.01
2018-04-19T10:29:46.368Z,1027.95
2018-04-19T10:30:46.628Z,1027.99
2018-04-19T10:31:46.378Z,1027.96
2018-04-19T10:32:46.383Z,1027.96
2018-04-19T10:33:46.437Z,1027.95
2018-04-19T10:34:46.389Z,1027.93
2018-04-19T10:35:46.393Z,1027.91
2018-04-19T10:36:46.398Z,1027.93
2018-04-19T10:37:46.401Z,1027.90
2018-04-19T10:38:46.405Z,1027.96
2018-04-19T10:39:46.408Z,1027.92
2018-04-19T10:40:46.469Z,1027.93
2018-04-19T10:41:46.416Z,1027.94
2018-04-19T10:42:46.419Z,1027.92
2018-04-19T10:43:46.558Z,1027.88
2018-04-19T10:44:46.428Z,1027.87
2018-04-19T10:45:46.534Z,1027.88
2018-04-19T10:46:46.436Z,1027.87
2018-04-19T10:47:46.474Z,1027.87
2018-04-19T10:48:46.447Z,1027.88
2018-04-19T10:49:46.450Z,1027.85
2018-04-19T10:50:46.456Z,1027.85
2018-04-19T10:51:46.457Z,1027.83
2018-04-19T10:52:46.462Z,1027.81
2018-04-19T10:53:46.463Z,1027.84
2018-04-19T10:54:46.470Z,1027.81
2018-04-19T10:55:46.474Z,1027.82
2018-04-19T10:56:46.583Z,1027.81
2018-04-19T10:57:46.485Z,1027.79
2018-04-19T10:58:46.487Z,1027.79
2018-04-19T10:59:46.492Z,1027.82
2018-04-19T11:00:46.496Z,1027.79
2018-04-19T11:01:46.500Z,1027.76
2018-04-19T11:02:46.504Z,1027.79
2018-04-19T11:03:46.509Z,1027.74
2018-04-19T11:04:46.513Z,1027.73
2018-04-19T11:05:46.517Z,1027.70
2018-04-19T11:06:46.523Z,1027.65
2018-04-19T11:07:46.536Z,1027.66
2018-04-19T11:08:46.528Z,1027.65
2018-04-19T11:09:46.534Z,1027.64
2018-04-19T11:10:46.543Z,1027.60
2018-04-19T11:11:46.543Z,1027.61
2018-04-19T11:12:46.550Z,1027.61
2018-04-19T11:13:46.551Z,1027.60
2018-04-19T11:14:46.555Z,1027.58
2018-04-19T11:15:46.558Z,1027.58
2018-04-19T11:16:46.565Z,1027.58
2018-04-19T11:17:46.569Z,1027.55
2018-04-19T11:18:46.572Z,1027.52
2018-04-19T11:19:46.577Z,1027.49
2018-04-19T11:20:46.579Z,1027.46
2018-04-19T11:21:46.584Z,1027.47
2018-04-19T11:22:46.590Z,1027.46
2018-04-19T11:23:46.595Z,1027.45
2018-04-19T11:24:46.596Z,1027.47
2018-04-19T11:25:46.600Z,1027.43
2018-04-19T11:26:46.608Z,1027.43
2018-04-19T11:27:46.611Z,1027.45
2018-04-19T11:28:46.617Z,1027.44
2018-04-19T11:29:46.619Z,1027.43
2018-04-19T11:30:46.624Z,1027.38
2018-04-19T11:31:46.631Z,1027.40
2018-04-19T11:32:47.056Z,1027.39
2018-04-19T11:33:46.642Z,1027.39
2018-04-19T11:34:46.643Z,1027.37
2018-04-19T11:35:46.649Z,1027.35
2018-04-19T11:36:46.959Z,1027.37
2018-04-19T11:37:46.681Z,1027.31
2018-04-19T11:38:46.662Z,1027.30
2018-04-19T11:39:46.999Z,1027.28
2018-04-19T11:40:46.847Z,1027.30
2018-04-19T11:41:46.679Z,1027.26
2018-04-19T11:42:46.680Z,1027.22
2018-04-19T11:43:46.691Z,1027.28
2018-04-19T11:44:46.691Z,1027.25
2018-04-19T11:45:46.696Z,1027.26
2018-04-19T11:46:46.702Z,1027.29
2018-04-19T11:47:46.703Z,1027.23
2018-04-19T11:48:46.709Z,1027.24
2018-04-19T11:49:46.714Z,1027.22
2018-04-19T11:50:46.719Z,1027.18
2018-04-19T11:51:46.724Z,1027.22
2018-04-19T11:52:47.104Z,1027.24
2018-04-19T11:53:46.758Z,1027.22
2018-04-19T11:54:46.748Z,1027.20
2018-04-19T11:55:46.753Z,1027.19
2018-04-19T11:56:46.747Z,1027.16
2018-04-19T11:57:46.753Z,1027.18
2018-04-19T11:58:46.759Z,1027.18
2018-04-19T11:59:46.767Z,1027.19
2018-04-19T12:00:46.831Z,1027.16
2018-04-19T12:01:46.772Z,1027.13
2018-04-19T12:02:46.776Z,1027.11
2018-04-19T12:03:46.780Z,1027.11
2018-04-19T12:04:46.786Z,1027.11
2018-04-19T12:05:46.793Z,1027.12